Time;durP1;ratioP1;P1;durP2;ratioP2;P2;SDS_P1;SDS_P2;PMS_P1;PMS_P2;Temp;Humidity;BMP_temperature;BMP_pressure;BME280_temperature;BME280_humidity;BME280_pressure;Samples;Min_cycle;Max_cycle;Signal;HPM_P1;HPM_P2
2023/02/24 00:01:24;;;;;;;3.73;3.53;;;7.80;97.30;;;;;;5121749;27;20680;-86
2023/02/24 00:03:51;;;;;;;10.87;5.23;;;7.80;97.30;;;;;;5130407;27;20238;-83
2023/02/24 00:06:17;;;;;;;6.97;4.50;;;7.80;97.30;;;;;;5142045;27;20462;-83
2023/02/24 00:08:43;;;;;;;8.97;4.40;;;7.80;97.30;;;;;;5139318;27;20413;-84
2023/02/24 00:11:13;;;;;;;7.40;4.83;;;7.80;97.30;;;;;;5125042;27;20548;-85
2023/02/24 00:13:40;;;;;;;8.33;3.60;;;7.70;97.30;;;;;;5112436;27;20185;-85
2023/02/24 00:16:06;;;;;;;7.97;3.70;;;7.70;97.30;;;;;;5120519;27;21168;-82
2023/02/24 00:18:33;;;;;;;4.70;4.30;;;7.70;97.30;;;;;;5120842;27;20416;-85
2023/02/24 00:21:10;;;;;;;6.90;4.67;;;7.70;97.30;;;;;;5129665;27;20223;-84
2023/02/24 00:23:39;;;;;;;4.50;4.20;;;7.70;97.30;;;;;;5127272;27;20441;-85
2023/02/24 00:26:06;;;;;;;2.80;2.60;;;7.70;97.30;;;;;;5120696;27;20395;-82
2023/02/24 00:28:33;;;;;;;6.93;3.93;;;7.60;97.30;;;;;;5122290;27;20214;-82
2023/02/24 00:31:18;;;;;;;6.00;3.27;;;7.60;97.30;;;;;;5140879;27;20411;-81
2023/02/24 00:33:46;;;;;;;7.37;3.93;;;7.50;97.30;;;;;;5114845;27;20420;-85
2023/02/24 00:36:15;;;;;;;5.00;4.60;;;7.50;97.30;;;;;;5120088;27;20422;-83
2023/02/24 00:38:45;;;;;;;2.93;2.67;;;7.40;97.30;;;;;;5119902;27;21094;-82
2023/02/24 00:41:14;;;;;;;33.57;4.00;;;7.40;97.30;;;;;;5138131;27;20617;-85
2023/02/24 00:43:45;;;;;;;10.57;5.93;;;7.40;97.30;;;;;;5116348;27;20418;-84
2023/02/24 00:46:12;;;;;;;5.07;4.30;;;7.40;97.30;;;;;;5126970;27;20432;-86
2023/02/24 00:48:41;;;;;;;4.57;4.30;;;7.40;97.30;;;;;;5134138;27;20421;-86
2023/02/24 00:51:11;;;;;;;3.53;3.33;;;7.40;97.30;;;;;;5133810;27;20932;-85
2023/02/24 00:53:38;;;;;;;10.53;3.67;;;7.40;97.30;;;;;;5118739;27;20406;-85
2023/02/24 00:56:06;;;;;;;3.13;2.93;;;7.40;97.30;;;;;;5120721;27;20401;-83
2023/02/24 00:58:33;;;;;;;6.57;5.73;;;7.40;97.30;;;;;;5129850;27;20410;-85
2023/02/24 01:01:00;;;;;;;10.83;3.13;;;7.30;97.30;;;;;;5119915;27;20442;-83
2023/02/24 01:03:26;;;;;;;10.00;4.23;;;7.30;97.30;;;;;;5145271;27;20486;-83
2023/02/24 01:05:52;;;;;;;19.70;5.60;;;7.30;97.30;;;;;;5118797;27;20398;-85
2023/02/24 01:08:20;;;;;;;9.20;5.90;;;7.30;97.30;;;;;;5136451;27;20462;-86
2023/02/24 01:13:44;;;;;;;25.03;5.70;;;7.30;97.30;;;;;;5136616;27;20923;-84
2023/02/24 01:16:13;;;;;;;7.93;4.37;;;7.30;97.30;;;;;;5139317;27;20449;-82
2023/02/24 01:18:39;;;;;;;8.80;4.80;;;7.20;97.30;;;;;;5120658;27;20432;-83
2023/02/24 01:21:05;;;;;;;5.93;5.10;;;7.20;97.30;;;;;;5140326;27;20395;-83
2023/02/24 01:23:31;;;;;;;6.10;5.07;;;7.10;97.30;;;;;;5141120;27;20553;-80
2023/02/24 01:25:58;;;;;;;14.25;5.70;;;7.00;97.30;;;;;;5122632;27;20456;-80
2023/02/24 01:28:27;;;;;;;20.93;3.80;;;7.00;97.30;;;;;;5120855;27;20159;-82
2023/02/24 01:30:53;;;;;;;4.87;2.87;;;7.00;97.30;;;;;;5137902;27;20469;-82
2023/02/24 01:33:19;;;;;;;6.80;5.83;;;7.00;97.30;;;;;;5137374;27;20915;-82
2023/02/24 01:35:44;;;;;;;6.53;4.73;;;6.90;97.30;;;;;;5118652;27;20181;-83
2023/02/24 01:38:10;;;;;;;13.20;5.00;;;6.90;97.30;;;;;;5119939;27;20461;-85
2023/02/24 01:40:36;;;;;;;12.93;5.87;;;6.90;97.30;;;;;;5117125;27;20267;-84
2023/02/24 01:43:07;;;;;;;11.83;7.10;;;6.90;97.30;;;;;;5118993;27;20199;-80
2023/02/24 01:45:35;;;;;;;10.15;4.40;;;6.90;97.30;;;;;;5128704;27;20176;-85
2023/02/24 01:48:04;;;;;;;12.33;6.53;;;6.90;97.30;;;;;;5132416;27;20444;-82
2023/02/24 01:50:32;;;;;;;8.85;5.60;;;6.90;97.30;;;;;;5120726;27;20391;-85
2023/02/24 01:53:00;;;;;;;6.80;5.30;;;6.90;97.30;;;;;;5118731;27;20413;-82
2023/02/24 01:55:35;;;;;;;4.10;3.40;;;6.90;97.30;;;;;;5125605;27;20787;-83
2023/02/24 01:58:07;;;;;;;9.90;3.20;;;6.90;97.30;;;;;;5117642;27;20962;-85
2023/02/24 02:00:37;;;;;;;2.97;2.53;;;6.90;97.30;;;;;;5119478;27;20434;-86
2023/02/24 02:03:09;;;;;;;8.60;5.90;;;6.90;97.30;;;;;;5118023;27;20525;-84
2023/02/24 02:05:37;;;;;;;5.33;3.93;;;6.90;97.30;;;;;;5119763;27;20383;-85
2023/02/24 02:08:03;;;;;;;5.45;2.15;;;6.80;97.30;;;;;;5132746;27;20506;-81
2023/02/24 02:10:28;;;;;;;7.30;3.77;;;6.80;97.30;;;;;;5115936;27;20413;-85
2023/02/24 02:12:54;;;;;;;15.55;3.50;;;6.80;97.30;;;;;;5119498;28;20920;-83
2023/02/24 02:15:20;;;;;;;3.83;3.57;;;6.80;97.30;;;;;;5117586;27;20414;-83
2023/02/24 02:17:50;;;;;;;4.75;3.45;;;6.70;97.30;;;;;;5120128;27;20462;-85
2023/02/24 02:20:54;;;;;;;2.90;2.40;;;6.50;97.30;;;;;;5138471;27;20900;-80
2023/02/24 02:23:56;;;;;;;1.30;1.20;;;6.40;97.30;;;;;;5141318;27;20501;-82
2023/02/24 02:26:46;;;;;;;3.20;2.20;;;6.20;97.30;;;;;;5135003;28;20430;-81
2023/02/24 02:29:30;;;;;;;8.35;4.60;;;6.00;97.30;;;;;;5115166;28;20237;-80
2023/02/24 02:32:42;;;;;;;4.25;2.70;;;5.90;97.30;;;;;;5113473;28;20870;-82
2023/02/24 02:35:19;;;;;;;1.43;1.33;;;5.80;97.30;;;;;;5113559;27;20423;-81
2023/02/24 02:38:25;;;;;;;1.30;1.20;;;5.60;97.30;;;;;;5120293;28;20461;-86
2023/02/24 02:41:17;;;;;;;2.60;2.13;;;5.60;97.30;;;;;;5122458;28;20308;-85
2023/02/24 02:44:11;;;;;;;1.65;1.55;;;5.40;97.30;;;;;;5118182;28;20483;-81
2023/02/24 02:46:47;;;;;;;9.25;3.45;;;5.40;97.30;;;;;;5125875;27;20445;-84
2023/02/24 02:49:29;;;;;;;2.00;1.70;;;5.30;97.30;;;;;;5112080;28;20459;-81
2023/02/24 02:51:59;;;;;;;2.85;1.95;;;5.20;97.30;;;;;;5136858;28;20437;-82
2023/02/24 02:54:48;;;;;;;19.15;4.40;;;5.20;97.30;;;;;;5119006;28;20449;-80
2023/02/24 02:57:22;;;;;;;1.40;1.30;;;5.10;97.30;;;;;;5121116;27;20472;-85
2023/02/24 03:00:00;;;;;;;1.40;1.40;;;5.10;97.30;;;;;;5121694;28;21145;-84
2023/02/24 03:02:29;;;;;;;1.15;1.05;;;5.10;97.30;;;;;;5118536;28;20467;-83
2023/02/24 03:04:59;;;;;;;1.10;1.00;;;5.00;97.30;;;;;;5126581;28;20402;-79
2023/02/24 03:07:30;;;;;;;3.80;3.30;;;5.00;97.30;;;;;;5118380;28;20257;-81
2023/02/24 03:10:00;;;;;;;1.25;1.10;;;5.00;97.30;;;;;;5137568;27;20468;-83
2023/02/24 03:12:31;;;;;;;1.40;1.30;;;5.00;97.30;;;;;;5124661;27;20422;-81
2023/02/24 03:14:59;;;;;;;62.90;2.30;;;;;;;;;;5127631;27;20454;-83
2023/02/24 03:17:29;;;;;;;4.80;2.15;;;4.90;97.30;;;;;;5131643;27;20311;-85
2023/02/24 03:20:15;;;;;;;2.45;1.60;;;4.90;97.30;;;;;;5135059;27;20467;-82
2023/02/24 03:22:50;;;;;;;2.10;1.95;;;4.90;97.30;;;;;;5121720;27;20450;-81
2023/02/24 03:25:18;;;;;;;5.25;2.65;;;5.00;97.30;;;;;;5142540;27;20405;-80
2023/02/24 03:27:49;;;;;;;1.90;1.80;;;5.00;97.30;;;;;;5121891;27;20473;-80
2023/02/24 03:30:20;;;;;;;1.80;1.40;;;5.00;97.30;;;;;;5120203;27;20604;-85
2023/02/24 03:32:56;;;;;;;1.60;1.50;;;4.90;97.30;;;;;;5116495;27;20218;-83
2023/02/24 03:35:26;;;;;;;1.60;1.50;;;4.90;97.30;;;;;;5122113;27;20599;-85
2023/02/24 03:37:54;;;;;;;17.30;1.45;;;4.80;97.30;;;;;;5120901;27;20616;-83
2023/02/24 03:40:20;;;;;;;;;;;4.90;97.30;;;;;;5122137;27;20823;-83
2023/02/24 03:42:49;;;;;;;3.00;1.90;;;4.90;97.30;;;;;;5128799;27;20527;-84
2023/02/24 03:45:16;;;;;;;6.35;4.35;;;4.90;97.30;;;;;;5110961;27;20410;-83
2023/02/24 03:47:44;;;;;;;4.50;2.65;;;4.90;97.30;;;;;;5131970;27;20528;-85
2023/02/24 03:50:20;;;;;;;1.40;1.30;;;4.90;97.30;;;;;;5118426;27;20197;-84
2023/02/24 03:53:15;;;;;;;5.80;1.40;;;4.90;97.30;;;;;;5119011;27;20832;-80
2023/02/24 03:55:57;;;;;;;1.20;1.10;;;4.90;97.30;;;;;;5114929;27;20426;-85
2023/02/24 03:58:35;;;;;;;2.35;2.15;;;4.80;97.30;;;;;;5113259;27;20224;-84
2023/02/24 04:01:26;;;;;;;1.80;1.70;;;4.80;97.30;;;;;;5108594;27;20481;-84
2023/02/24 04:03:51;;;;;;;2.30;1.60;;;4.80;97.30;;;;;;5105062;27;20237;-85
2023/02/24 04:06:40;;;;;;;1.75;1.20;;;4.80;97.30;;;;;;5114052;27;20469;-86
2023/02/24 04:09:32;;;;;;;2.20;2.00;;;4.80;97.30;;;;;;5107569;27;20652;-85
2023/02/24 04:12:03;;;;;;;;;;;4.80;97.30;;;;;;5104917;27;20245;-85
2023/02/24 04:14:35;;;;;;;;;;;4.80;97.30;;;;;;5115341;27;20518;-86
2023/02/24 04:17:25;;;;;;;2.60;2.00;;;4.70;97.30;;;;;;5113763;27;21045;-83
2023/02/24 04:19:57;;;;;;;5.50;2.20;;;4.70;97.30;;;;;;5106357;27;20430;-85
2023/02/24 04:22:25;;;;;;;1.55;1.45;;;4.70;97.30;;;;;;5114390;27;20463;-85
2023/02/24 04:24:55;;;;;;;6.00;2.50;;;4.70;97.30;;;;;;5117528;27;20803;-86
2023/02/24 04:27:21;;;;;;;4.35;1.75;;;4.70;97.30;;;;;;5116492;27;20231;-86
2023/02/24 04:30:00;;;;;;;1.10;1.00;;;4.60;97.30;;;;;;5131577;27;20398;-85
2023/02/24 04:32:28;;;;;;;17.40;1.90;;;4.70;97.30;;;;;;5121634;27;20414;-86
2023/02/24 04:35:05;;;;;;;3.85;1.60;;;4.70;97.30;;;;;;5113525;27;20437;-86
2023/02/24 04:37:34;;;;;;;1.35;1.25;;;4.70;97.30;;;;;;5112577;27;20543;-86
2023/02/24 04:40:00;;;;;;;1.60;1.55;;;4.70;97.30;;;;;;5111810;27;20449;-86
2023/02/24 04:42:26;;;;;;;4.50;1.50;;;4.70;97.30;;;;;;5110630;27;20450;-86
2023/02/24 04:44:57;;;;;;;2.30;2.10;;;4.70;97.30;;;;;;5134575;27;20923;-84
2023/02/24 04:47:23;;;;;;;10.50;2.80;;;4.60;97.30;;;;;;5111935;27;20268;-86
2023/02/24 04:49:48;;;;;;;;;;;4.60;97.30;;;;;;5115927;27;20422;-86
2023/02/24 04:52:14;;;;;;;1.10;1.00;;;4.50;97.30;;;;;;5111904;27;20191;-86
2023/02/24 04:54:40;;;;;;;1.30;1.20;;;4.50;97.30;;;;;;5111881;27;20173;-86
2023/02/24 04:57:06;;;;;;;1.20;1.10;;;4.50;97.30;;;;;;5111094;27;20568;-86
2023/02/24 04:59:32;;;;;;;2.80;2.10;;;4.50;97.30;;;;;;5113457;27;20265;-86
2023/02/24 05:02:00;;;;;;;2.10;1.60;;;4.40;97.30;;;;;;5109257;27;20922;-86
2023/02/24 05:04:26;;;;;;;1.20;1.10;;;4.40;97.30;;;;;;5130498;27;20176;-86
2023/02/24 05:06:56;;;;;;;1.10;1.00;;;4.40;97.30;;;;;;5116364;27;20431;-86
2023/02/24 05:09:21;;;;;;;2.20;2.10;;;4.40;97.30;;;;;;5129450;27;20453;-86
2023/02/24 05:11:48;;;;;;;;;;;4.40;97.30;;;;;;5119518;27;20545;-85
2023/02/24 05:14:16;;;;;;;;;;;4.40;97.30;;;;;;5110874;27;20158;-86
2023/02/24 05:16:42;;;;;;;;;;;4.40;97.30;;;;;;5110635;27;20291;-86
2023/02/24 05:21:52;;;;;;;2.30;1.80;;;4.40;97.30;;;;;;5124041;27;20248;-85
2023/02/24 05:24:18;;;;;;;1.70;1.60;;;4.40;97.30;;;;;;5111265;27;20410;-86
2023/02/24 05:26:43;;;;;;;1.80;1.70;;;4.40;97.30;;;;;;5117833;27;20235;-84
2023/02/24 05:29:10;;;;;;;1.60;1.50;;;4.40;97.30;;;;;;5119125;27;20297;-83
2023/02/24 05:31:36;;;;;;;;;;;4.30;97.30;;;;;;5128645;27;20364;-85
2023/02/24 05:34:05;;;;;;;1.80;1.70;;;4.40;97.30;;;;;;5122886;27;21224;-85
2023/02/24 05:36:32;;;;;;;;;;;4.40;97.30;;;;;;5139328;27;20570;-84
2023/02/24 05:39:03;;;;;;;2.60;2.00;;;4.30;97.30;;;;;;5119627;27;20738;-85
2023/02/24 05:41:34;;;;;;;1.77;1.67;;;4.30;97.30;;;;;;5116042;27;20426;-79
2023/02/24 05:44:03;;;;;;;1.90;1.80;;;4.30;97.30;;;;;;5118559;27;20410;-80
2023/02/24 05:46:31;;;;;;;6.00;5.70;;;4.30;97.30;;;;;;5126992;27;20249;-80
2023/02/24 05:49:07;;;;;;;1.80;1.70;;;4.30;97.30;;;;;;5119799;27;20274;-85
2023/02/24 05:51:34;;;;;;;3.30;2.00;;;4.30;97.30;;;;;;5119031;27;20736;-82
2023/02/24 05:54:05;;;;;;;2.70;1.70;;;4.30;97.30;;;;;;5117444;27;20240;-82
2023/02/24 05:56:37;;;;;;;3.95;3.70;;;4.30;97.30;;;;;;5116868;27;20538;-82
2023/02/24 05:59:06;;;;;;;6.55;1.60;;;4.30;97.30;;;;;;5125812;27;20426;-82
2023/02/24 06:01:46;;;;;;;2.05;1.90;;;4.20;97.30;;;;;;5117987;27;20682;-83
2023/02/24 06:04:19;;;;;;;2.50;2.30;;;4.20;97.30;;;;;;5114931;27;20261;-83
2023/02/24 06:06:51;;;;;;;2.05;1.60;;;4.20;97.30;;;;;;5136052;27;20454;-83
2023/02/24 06:09:17;;;;;;;11.05;2.30;;;4.20;97.30;;;;;;5131840;27;20385;-84
2023/02/24 06:11:44;;;;;;;1.85;1.75;;;4.20;97.30;;;;;;5117076;27;20450;-83
2023/02/24 06:14:10;;;;;;;2.83;2.63;;;4.20;97.30;;;;;;5116720;28;20821;-83
2023/02/24 06:16:42;;;;;;;10.70;1.25;;;4.20;97.30;;;;;;5133375;27;21024;-80
2023/02/24 06:19:09;;;;;;;1.20;1.10;;;4.20;97.30;;;;;;5109367;27;20481;-81
2023/02/24 06:21:39;;;;;;;2.95;2.85;;;4.20;97.30;;;;;;5115345;27;20414;-82
2023/02/24 06:24:07;;;;;;;1.60;1.50;;;4.20;97.30;;;;;;5117751;28;20503;-81
2023/02/24 06:26:35;;;;;;;6.90;1.53;;;4.10;97.30;;;;;;5107729;28;20478;-82
2023/02/24 06:29:03;;;;;;;1.40;1.30;;;4.20;97.30;;;;;;5121071;28;20244;-81
2023/02/24 06:31:28;;;;;;;1.10;1.00;;;4.20;97.30;;;;;;5121246;28;20815;-85
2023/02/24 06:33:54;;;;;;;1.00;0.90;;;4.20;97.30;;;;;;5131678;28;20456;-81
2023/02/24 06:36:20;;;;;;;;;;;4.30;97.30;;;;;;5120470;28;20695;-81
2023/02/24 06:38:48;;;;;;;1.85;1.75;;;4.30;97.30;;;;;;5121648;28;20232;-81
2023/02/24 06:41:13;;;;;;;1.20;1.10;;;4.30;97.30;;;;;;5144276;27;20172;-83
2023/02/24 06:43:42;;;;;;;0.90;0.80;;;4.30;97.30;;;;;;5114832;28;20239;-82
2023/02/24 06:46:09;;;;;;;15.90;1.80;;;4.30;97.30;;;;;;5119119;27;20200;-83
2023/02/24 06:48:36;;;;;;;6.30;2.10;;;4.40;97.30;;;;;;5117988;27;20786;-83
2023/02/24 06:51:03;;;;;;;;;;;4.40;97.30;;;;;;5112424;27;20237;-82
2023/02/24 06:53:33;;;;;;;1.75;1.65;;;4.30;97.30;;;;;;5111518;27;20232;-85
2023/02/24 06:56:03;;;;;;;1.00;0.90;;;4.40;97.30;;;;;;5115295;27;20665;-82
2023/02/24 06:58:30;;;;;;;2.40;2.20;;;4.40;97.30;;;;;;5121613;27;20715;-83
2023/02/24 07:00:55;;;;;;;1.50;1.40;;;4.40;97.30;;;;;;5118056;27;20496;-80
2023/02/24 07:03:23;;;;;;;;;;;4.40;97.30;;;;;;5139090;27;20256;-84
2023/02/24 07:05:52;;;;;;;;;;;4.40;97.30;;;;;;5128074;27;20196;-80
2023/02/24 07:08:21;;;;;;;1.60;1.50;;;4.40;97.30;;;;;;5123545;27;20452;-83
2023/02/24 07:10:58;;;;;;;1.20;1.10;;;4.40;97.30;;;;;;5122342;27;20438;-81
2023/02/24 07:13:27;;;;;;;1.10;1.00;;;4.40;97.30;;;;;;5147034;27;20583;-81
2023/02/24 07:15:53;;;;;;;2.10;1.95;;;4.40;97.30;;;;;;5147767;27;20393;-82
2023/02/24 07:18:19;;;;;;;16.97;1.83;;;4.40;97.30;;;;;;5127373;27;20421;-84
2023/02/24 07:20:45;;;;;;;2.73;2.53;;;4.40;97.30;;;;;;5137627;27;20418;-81
2023/02/24 07:23:17;;;;;;;1.10;1.00;;;4.40;97.30;;;;;;5119143;27;20550;-82
2023/02/24 07:25:45;;;;;;;1.35;1.35;;;4.40;97.30;;;;;;5121343;27;20403;-81
2023/02/24 07:28:11;;;;;;;12.10;2.00;;;4.40;97.30;;;;;;5138624;27;20305;-82
2023/02/24 07:30:38;;;;;;;1.13;1.03;;;4.40;97.30;;;;;;5119388;27;20409;-81
2023/02/24 07:33:03;;;;;;;2.50;1.67;;;4.40;97.30;;;;;;5122343;27;20417;-81
2023/02/24 07:35:29;;;;;;;1.55;1.45;;;4.40;97.30;;;;;;5121750;27;20501;-80
2023/02/24 07:38:00;;;;;;;1.70;1.65;;;4.40;97.30;;;;;;5122302;27;20212;-80
2023/02/24 07:40:27;;;;;;;1.60;1.50;;;4.50;97.30;;;;;;5139382;27;20406;-82
2023/02/24 07:42:53;;;;;;;6.80;3.70;;;4.50;97.30;;;;;;5146948;27;20697;-83
2023/02/24 07:45:19;;;;;;;3.10;2.90;;;4.50;97.30;;;;;;5131993;27;20454;-81
2023/02/24 07:47:44;;;;;;;;;;;4.50;97.30;;;;;;5149386;27;20228;-80
2023/02/24 07:50:17;;;;;;;1.20;1.10;;;4.50;97.30;;;;;;5150320;27;20948;-83
2023/02/24 07:52:46;;;;;;;1.00;0.90;;;4.50;97.30;;;;;;5121153;27;20166;-82
2023/02/24 07:55:14;;;;;;;1.10;1.10;;;4.50;97.30;;;;;;5120771;27;20913;-84
2023/02/24 07:57:45;;;;;;;4.00;3.10;;;4.50;97.30;;;;;;5119840;27;20434;-79
2023/02/24 08:00:17;;;;;;;1.57;1.47;;;4.60;97.30;;;;;;5118720;27;20410;-81
2023/02/24 08:02:47;;;;;;;19.70;3.30;;;4.60;97.30;;;;;;5141767;27;20540;-79
2023/02/24 08:05:14;;;;;;;4.20;1.80;;;4.60;97.30;;;;;;5125842;27;20398;-84
2023/02/24 08:07:39;;;;;;;1.90;1.80;;;4.60;97.30;;;;;;5120107;27;20430;-81
2023/02/24 08:10:12;;;;;;;1.20;1.10;;;4.60;97.30;;;;;;5126211;27;20425;-81
2023/02/24 08:12:42;;;;;;;2.20;2.00;;;4.60;97.30;;;;;;5128612;27;20267;-81
2023/02/24 08:15:15;;;;;;;1.20;1.10;;;4.70;97.30;;;;;;5123577;27;20409;-80
2023/02/24 08:17:42;;;;;;;2.60;1.60;;;4.70;97.30;;;;;;5121483;27;20552;-81
2023/02/24 08:22:37;;;;;;;2.20;1.20;;;4.70;97.30;;;;;;5147430;27;20858;-81
2023/02/24 08:25:06;;;;;;;16.90;1.90;;;4.80;97.30;;;;;;5126673;27;20421;-80
2023/02/24 08:27:39;;;;;;;1.10;1.00;;;4.80;97.30;;;;;;5127935;27;20186;-81
2023/02/24 08:30:06;;;;;;;1.40;1.30;;;4.80;97.30;;;;;;5135350;27;20402;-81
2023/02/24 08:32:33;;;;;;;8.73;2.20;;;4.80;97.30;;;;;;5119906;27;20927;-83
2023/02/24 08:35:02;;;;;;;10.30;2.73;;;5.00;97.30;;;;;;5118632;27;20394;-84
2023/02/24 08:37:33;;;;;;;2.40;1.70;;;5.20;97.30;;;;;;5130882;27;20441;-82
2023/02/24 08:39:59;;;;;;;1.43;1.40;;;5.40;97.30;;;;;;5118513;27;20418;-81
2023/02/24 08:42:33;;;;;;;1.30;1.20;;;5.50;97.30;;;;;;5119997;27;20613;-83
2023/02/24 08:45:00;;;;;;;1.40;1.30;;;5.60;97.30;;;;;;5147411;27;20413;-84
2023/02/24 08:47:29;;;;;;;1.67;1.53;;;5.70;97.30;;;;;;5123243;27;20485;-83
2023/02/24 08:49:58;;;;;;;3.07;1.90;;;5.70;97.30;;;;;;5139061;27;20405;-81
2023/02/24 08:52:26;;;;;;;1.33;1.23;;;5.80;97.30;;;;;;5121101;27;20402;-84
2023/02/24 08:54:57;;;;;;;15.70;2.40;;;5.90;97.30;;;;;;5121376;27;20426;-84
2023/02/24 08:57:24;;;;;;;6.30;1.73;;;5.80;97.30;;;;;;5120306;27;20443;-84
2023/02/24 08:59:56;;;;;;;1.00;0.90;;;5.80;97.30;;;;;;5118664;27;20502;-84
2023/02/24 09:02:23;;;;;;;3.90;2.20;;;5.90;97.30;;;;;;5137222;27;20442;-82
2023/02/24 09:04:58;;;;;;;3.50;2.03;;;6.10;97.30;;;;;;5118362;27;20428;-82
2023/02/24 09:07:34;;;;;;;1.60;1.50;;;6.00;97.30;;;;;;5145635;27;20472;-83
2023/02/24 09:10:04;;;;;;;51.73;2.07;;;6.00;97.30;;;;;;5126527;27;20420;-80
2023/02/24 09:12:29;;;;;;;1.40;1.35;;;5.90;97.30;;;;;;5127635;27;20928;-84
2023/02/24 09:15:03;;;;;;;7.70;3.30;;;5.70;97.30;;;;;;5118616;27;20418;-81
2023/02/24 09:17:39;;;;;;;3.23;1.83;;;5.60;97.30;;;;;;5122286;27;20228;-83
2023/02/24 09:20:55;;;;;;;2.57;2.37;;;5.60;97.30;;;;;;5131023;27;20408;-80
2023/02/24 09:23:28;;;;;;;6.05;2.15;;;5.60;97.30;;;;;;5114445;27;20528;-84
2023/02/24 09:25:54;;;;;;;1.40;1.30;;;5.60;97.30;;;;;;5126711;27;20450;-82
2023/02/24 09:28:25;;;;;;;6.10;1.53;;;5.70;97.30;;;;;;5120027;27;20209;-84
2023/02/24 09:31:03;;;;;;;2.90;1.83;;;5.60;97.30;;;;;;5120557;27;20425;-80
2023/02/24 09:33:37;;;;;;;1.30;1.20;;;5.60;97.30;;;;;;5119114;27;20904;-83
2023/02/24 09:36:08;;;;;;;2.00;1.90;;;5.60;97.30;;;;;;5113225;27;20551;-81
2023/02/24 09:42:27;;;;;;;1.83;1.73;;;5.70;97.30;;;;;;5144391;27;20422;-84
2023/02/24 09:44:56;;;;;;;1.10;1.00;;;5.80;97.30;;;;;;5141085;27;20870;-81
2023/02/24 09:47:55;;;;;;;3.95;1.85;;;5.90;97.30;;;;;;5124416;27;20857;-83
2023/02/24 09:50:23;;;;;;;1.47;1.37;;;6.00;97.30;;;;;;5114215;27;20417;-80
2023/02/24 09:52:51;;;;;;;3.85;3.40;;;6.10;97.30;;;;;;5120561;27;20418;-81
2023/02/24 09:55:26;;;;;;;2.30;2.10;;;6.10;97.30;;;;;;5126291;27;20456;-82
2023/02/24 10:00:52;;;;;;;1.75;1.65;;;6.20;97.30;;;;;;5140943;27;20248;-82
2023/02/24 10:03:46;;;;;;;1.50;1.50;;;6.20;97.30;;;;;;5125497;27;20653;-84
2023/02/24 10:06:19;;;;;;;2.05;1.60;;;6.20;97.30;;;;;;5117868;27;20434;-82
2023/02/24 10:08:58;;;;;;;1.47;1.37;;;6.20;97.30;;;;;;5119132;27;20410;-79
2023/02/24 10:11:34;;;;;;;1.67;1.60;;;6.30;97.30;;;;;;5129046;27;20437;-81
2023/02/24 10:14:04;;;;;;;1.45;1.35;;;6.30;97.30;;;;;;5119398;27;20396;-84
2023/02/24 10:16:40;;;;;;;2.93;2.07;;;6.40;97.30;;;;;;5118308;28;20507;-83
2023/02/24 10:19:25;;;;;;;1.57;1.40;;;6.40;97.30;;;;;;5117867;27;20395;-80
2023/02/24 10:22:02;;;;;;;1.30;1.30;;;6.50;97.30;;;;;;5121517;27;20535;-82
2023/02/24 10:24:46;;;;;;;1.67;1.57;;;6.50;97.30;;;;;;5130074;27;20432;-82
2023/02/24 10:27:35;;;;;;;1.30;1.20;;;6.50;97.30;;;;;;5112358;28;20453;-82
2023/02/24 10:30:18;;;;;;;1.40;1.30;;;6.50;97.30;;;;;;5118807;27;20406;-81
2023/02/24 10:33:01;;;;;;;1.00;0.90;;;6.50;97.30;;;;;;5129588;27;20407;-83
2023/02/24 10:35:32;;;;;;;2.20;2.00;;;6.60;97.30;;;;;;5125616;27;20418;-83
2023/02/24 10:38:04;;;;;;;1.30;1.20;;;6.70;97.30;;;;;;5130351;27;20470;-82
2023/02/24 10:40:43;;;;;;;3.73;1.73;;;6.80;97.30;;;;;;5118468;28;20429;-82
2023/02/24 10:43:16;;;;;;;2.37;2.00;;;6.90;97.30;;;;;;5118892;28;20503;-84
2023/02/24 10:45:45;;;;;;;1.20;1.10;;;6.80;97.30;;;;;;5122424;27;20483;-84
2023/02/24 10:48:26;;;;;;;6.40;2.30;;;6.90;97.30;;;;;;5125117;28;20271;-83
2023/02/24 10:50:53;;;;;;;3.75;3.25;;;7.00;97.30;;;;;;5118312;27;20422;-82
2023/02/24 10:53:39;;;;;;;2.60;2.20;;;6.80;97.30;;;;;;5119196;27;20849;-83
2023/02/24 10:56:25;;;;;;;7.60;2.85;;;6.80;97.30;;;;;;5141833;27;20549;-83
2023/02/24 11:02:23;;;;;;;1.35;1.25;;;6.90;97.30;;;;;;5149504;27;20491;-82
2023/02/24 11:07:44;;;;;;;1.80;1.70;;;6.90;97.30;;;;;;5153299;27;20496;-84
2023/02/24 11:10:25;;;;;;;3.80;2.45;;;6.90;97.30;;;;;;5124340;27;20521;-84
2023/02/24 11:18:30;;;;;;;6.75;1.50;;;6.90;97.30;;;;;;5131556;27;20472;-84
2023/02/24 11:21:01;;;;;;;3.03;1.83;;;6.90;97.30;;;;;;5147012;27;20400;-81
2023/02/24 11:23:28;;;;;;;1.55;1.25;;;6.90;97.30;;;;;;5144333;27;20227;-81
2023/02/24 11:25:59;;;;;;;1.75;1.65;;;6.90;97.30;;;;;;5119543;27;20425;-81
2023/02/24 11:28:31;;;;;;;1.30;1.20;;;6.90;97.30;;;;;;5121216;28;20477;-83
2023/02/24 11:31:12;;;;;;;1.50;1.40;;;6.90;97.30;;;;;;5120919;28;20796;-80
2023/02/24 11:33:46;;;;;;;1.45;1.35;;;6.90;97.30;;;;;;5137547;27;20303;-85
2023/02/24 11:36:29;;;;;;;3.20;1.90;;;6.90;97.30;;;;;;5118535;27;20445;-83
2023/02/24 11:39:00;;;;;;;4.10;2.00;;;6.90;97.30;;;;;;5122573;27;20450;-83
2023/02/24 11:41:32;;;;;;;1.90;1.80;;;6.90;97.30;;;;;;5124219;27;20447;-81
2023/02/24 11:44:08;;;;;;;8.30;1.30;;;6.90;97.30;;;;;;5120941;27;20506;-82
2023/02/24 11:46:53;;;;;;;2.40;2.20;;;6.90;97.30;;;;;;5120693;27;20421;-84
2023/02/24 11:49:36;;;;;;;1.40;1.30;;;6.80;97.30;;;;;;5121174;27;20470;-83
2023/02/24 11:52:05;;;;;;;2.45;1.25;;;6.80;97.30;;;;;;5121139;27;20445;-83
2023/02/24 11:54:46;;;;;;;2.60;1.43;;;6.70;97.30;;;;;;5122166;27;20506;-82
2023/02/24 11:57:19;;;;;;;2.15;1.20;;;6.70;97.30;;;;;;5121274;27;20481;-83
2023/02/24 11:59:57;;;;;;;2.50;2.30;;;6.70;97.30;;;;;;5118416;27;20319;-83
2023/02/24 12:03:00;;;;;;;1.70;1.60;;;6.80;97.30;;;;;;5129392;27;20487;-83
2023/02/24 12:05:33;;;;;;;1.70;1.60;;;6.80;97.30;;;;;;5115562;27;20409;-83
2023/02/24 12:08:27;;;;;;;2.00;1.90;;;6.80;97.30;;;;;;5151323;27;20418;-83
2023/02/24 12:11:14;;;;;;;1.00;0.90;;;6.80;97.30;;;;;;5147562;27;20842;-81
2023/02/24 12:14:05;;;;;;;1.50;1.40;;;6.80;97.30;;;;;;5118271;27;20502;-81
2023/02/24 12:16:37;;;;;;;2.77;1.87;;;6.80;97.30;;;;;;5117897;27;20454;-81
2023/02/24 12:19:20;;;;;;;1.70;1.60;;;6.80;97.30;;;;;;5127810;27;20402;-80
2023/02/24 12:21:54;;;;;;;1.73;1.63;;;6.80;97.30;;;;;;5143715;27;20418;-83
2023/02/24 12:24:20;;;;;;;1.20;1.10;;;6.90;97.30;;;;;;5131356;27;20561;-83
2023/02/24 12:27:12;;;;;;;1.90;1.50;;;6.90;97.30;;;;;;5123431;27;20426;-81
2023/02/24 12:29:56;;;;;;;1.70;1.60;;;6.80;97.30;;;;;;5126232;27;20267;-79
2023/02/24 12:33:00;;;;;;;1.90;1.80;;;6.80;97.30;;;;;;5112546;27;20927;-81
2023/02/24 12:35:50;;;;;;;1.35;1.30;;;6.90;97.30;;;;;;5122406;27;20425;-82
2023/02/24 12:38:42;;;;;;;2.80;1.60;;;6.90;97.30;;;;;;5137669;27;20932;-82
2023/02/24 12:41:42;;;;;;;2.30;1.87;;;7.00;97.30;;;;;;5122066;27;20432;-81
2023/02/24 12:44:22;;;;;;;1.10;1.00;;;7.00;97.30;;;;;;5130009;27;20430;-82
2023/02/24 12:47:02;;;;;;;1.10;1.00;;;7.00;97.30;;;;;;5144411;22;20474;-88
2023/02/24 12:50:00;;;;;;;2.95;1.35;;;6.90;97.10;;;;;;5052728;28;20414;-85
2023/02/24 12:53:21;;;;;;;;;;;;;;;;;;;;;
2023/02/24 12:56:31;;;;;;;1.93;1.83;;;6.90;97.30;;;;;;4978719;28;20500;-85
2023/02/24 12:59:40;;;;;;;2.35;1.70;;;6.80;97.30;;;;;;4945176;28;20209;-86
2023/02/24 13:02:08;;;;;;;1.00;0.90;;;6.80;97.30;;;;;;4953167;28;20285;-88
2023/02/24 13:05:10;;;;;;;1.03;0.93;;;6.70;96.90;;;;;;4979320;28;20563;-89
2023/02/24 13:07:38;;;;;;;2.80;1.30;;;6.60;97.10;;;;;;5018981;28;20433;-86
2023/02/24 13:10:59;;;;;;;5.70;2.80;;;6.60;97.30;;;;;;5038900;28;20959;-85
2023/02/24 13:13:47;;;;;;;1.90;1.70;;;6.60;97.30;;;;;;5002673;28;20239;-86
2023/02/24 13:16:13;;;;;;;1.30;1.20;;;6.50;97.30;;;;;;5014510;28;20209;-84
2023/02/24 13:18:39;;;;;;;1.30;1.20;;;6.50;97.30;;;;;;5038899;28;20463;-86
2023/02/24 13:21:13;;;;;;;2.03;1.93;;;6.20;97.30;;;;;;5030546;28;20224;-87
2023/02/24 13:23:41;;;;;;;1.45;1.40;;;5.90;97.30;;;;;;5027015;28;20210;-83
2023/02/24 13:26:09;;;;;;;1.47;1.37;;;5.60;97.30;;;;;;5030522;28;20442;-87
2023/02/24 13:28:37;;;;;;;1.20;1.10;;;5.40;97.30;;;;;;5028385;28;20244;-83
2023/02/24 13:31:11;;;;;;;28.40;1.50;;;5.20;97.30;;;;;;5024627;28;20422;-86
2023/02/24 13:33:42;;;;;;;1.40;1.30;;;5.10;97.30;;;;;;5029274;28;20471;-86
2023/02/24 13:36:20;;;;;;;8.95;2.90;;;5.00;97.30;;;;;;5022126;28;20458;-86
2023/02/24 13:39:05;;;;;;;2.60;1.40;;;4.90;97.30;;;;;;5020548;28;20417;-87
2023/02/24 13:41:31;;;;;;;1.55;1.45;;;4.90;97.30;;;;;;5019330;28;20470;-86
2023/02/24 13:43:57;;;;;;;1.60;1.50;;;4.90;97.30;;;;;;5037491;28;20499;-86
2023/02/24 13:46:24;;;;;;;;;;;4.90;97.30;;;;;;5019958;28;20297;-87
2023/02/24 13:49:03;;;;;;;6.25;1.55;;;4.90;97.30;;;;;;5014860;28;20519;-88
2023/02/24 13:51:47;;;;;;;15.35;2.15;;;4.80;97.30;;;;;;5031421;28;20463;-89
2023/02/24 13:54:36;;;;;;;1.75;1.65;;;5.00;97.30;;;;;;5040524;28;20409;-84
2023/02/24 13:57:35;;;;;;;4.50;1.45;;;5.30;97.30;;;;;;5029695;28;20251;-86
2023/02/24 14:00:24;;;;;;;;;;;5.40;97.30;;;;;;5017842;28;20257;-85
2023/02/24 14:02:52;;;;;;;3.05;2.85;;;5.20;97.30;;;;;;5018036;28;21031;-89